Florissant, Colorado
Current Conditions -  °F | °C
As of 1:58 AM on Friday 31 Oct 2014 (Local Time) from KAFF Reporting Station
Clear Clear  
Wind Chill: 33°   Ceiling: Unl
Heat Index: 33°   Visibility: 10mi
Dew Point: 22°   Wind: 2mph
Humidity: 65%   Direction: 130°SE
Pressure: 30.43"   Gusts: NA
Location:  38.95°N, 105.29°W
Report Text: KAFF 310758Z AUTO 13002KT 10SM CLR 01/M05 A3043 RMK AO2 SLP287 T00051054
Loading
Personal Weather Stations






























Interactive Weather Map
Tropical Storm Tracking
New forecast layout! Learn more

10-Day Weather Forecast

Advertisements
Track Severe Weather on mobile